Time;durP1;ratioP1;P1;durP2;ratioP2;P2;SDS_P1;SDS_P2;PMS_P1;PMS_P2;Temp;Humidity;BMP_temperature;BMP_pressure;BME280_temperature;BME280_humidity;BME280_pressure;Samples;Min_cycle;Max_cycle;Signal;HPM_P1;HPM_P2
2021/05/04 00:01:39;;;;;;;4.32;2.30;;;12.90;68.80;;;;;;5014741;28;20030;-70
2021/05/04 00:04:05;;;;;;;3.95;2.50;;;12.90;68.60;;;;;;5014302;28;20030;-71
2021/05/04 00:06:31;;;;;;;3.70;2.70;;;12.90;68.70;;;;;;5014503;28;20030;-71
2021/05/04 00:08:57;;;;;;;3.92;2.10;;;12.80;68.70;;;;;;5014351;28;20029;-69
2021/05/04 00:11:23;;;;;;;8.82;2.63;;;12.80;68.50;;;;;;5014479;28;20467;-70
2021/05/04 00:13:49;;;;;;;4.03;2.65;;;12.80;68.50;;;;;;5014517;28;20057;-70
2021/05/04 00:16:15;;;;;;;3.10;2.33;;;12.80;68.50;;;;;;5014246;28;20538;-70
2021/05/04 00:18:41;;;;;;;9.18;2.50;;;12.70;68.40;;;;;;5014299;28;20160;-71
2021/05/04 00:21:07;;;;;;;7.38;2.60;;;12.70;68.50;;;;;;5014316;28;20395;-71
2021/05/04 00:23:32;;;;;;;3.42;2.63;;;12.60;69.00;;;;;;5013033;28;20026;-70
2021/05/04 00:25:58;;;;;;;5.18;2.67;;;12.60;69.20;;;;;;5014094;28;20033;-70
2021/05/04 00:28:24;;;;;;;6.57;2.70;;;12.50;69.30;;;;;;5014226;28;20022;-71
2021/05/04 00:30:51;;;;;;;4.30;2.45;;;12.50;69.40;;;;;;5014327;28;20113;-70
2021/05/04 00:33:17;;;;;;;5.20;2.58;;;12.50;69.70;;;;;;5014177;28;20433;-71
2021/05/04 00:35:43;;;;;;;6.22;2.40;;;12.50;70.00;;;;;;5013905;28;20028;-70
2021/05/04 00:38:08;;;;;;;3.13;2.78;;;12.50;70.10;;;;;;5013756;28;20105;-71
2021/05/04 00:40:35;;;;;;;6.25;2.55;;;12.50;70.00;;;;;;5013966;28;20469;-71
2021/05/04 00:43:00;;;;;;;3.17;2.30;;;12.50;69.90;;;;;;5014117;28;20026;-71
2021/05/04 00:45:26;;;;;;;2.88;2.25;;;12.50;69.60;;;;;;5013934;28;20034;-71
2021/05/04 00:47:52;;;;;;;3.08;2.20;;;12.40;69.40;;;;;;5014100;28;20022;-71
2021/05/04 00:50:18;;;;;;;2.70;1.98;;;12.40;69.60;;;;;;5013374;28;20045;-70
2021/05/04 00:52:44;;;;;;;5.53;2.03;;;12.50;69.90;;;;;;5013902;28;20489;-70
2021/05/04 00:55:11;;;;;;;3.15;2.20;;;12.40;69.10;;;;;;5013790;28;20104;-70
2021/05/04 00:57:37;;;;;;;2.97;2.30;;;12.40;68.80;;;;;;5012702;28;20026;-69
2021/05/04 01:00:07;;;;;;;3.72;2.72;;;12.40;69.00;;;;;;5010648;28;20040;-69
2021/05/04 01:02:33;;;;;;;7.90;2.60;;;12.40;69.00;;;;;;5010759;28;20026;-69
2021/05/04 01:05:00;;;;;;;4.43;2.65;;;12.40;69.50;;;;;;5012426;28;20033;-68
2021/05/04 01:07:27;;;;;;;5.90;2.60;;;12.30;69.70;;;;;;5013629;28;20178;-70
2021/05/04 01:09:55;;;;;;;5.55;2.33;;;12.30;69.70;;;;;;5013288;28;20160;-68
2021/05/04 01:12:22;;;;;;;3.30;2.53;;;12.30;69.80;;;;;;5013180;28;20025;-69
2021/05/04 01:14:48;;;;;;;5.65;2.53;;;12.20;70.10;;;;;;5013086;28;20033;-68
2021/05/04 01:17:14;;;;;;;5.68;2.70;;;12.20;69.80;;;;;;5013597;28;20028;-69
2021/05/04 01:19:40;;;;;;;4.35;2.45;;;12.10;70.20;;;;;;5013414;28;20022;-69
2021/05/04 01:22:06;;;;;;;4.55;2.67;;;12.10;70.40;;;;;;5012861;28;20022;-69
2021/05/04 01:24:32;;;;;;;4.00;2.35;;;12.10;70.10;;;;;;5013237;28;20034;-69
2021/05/04 01:26:59;;;;;;;9.80;2.55;;;12.10;70.10;;;;;;5013319;28;20022;-68
2021/05/04 01:29:26;;;;;;;4.90;2.72;;;12.00;69.80;;;;;;5012650;28;20034;-69
2021/05/04 01:31:52;;;;;;;7.40;2.60;;;12.00;69.90;;;;;;5013131;28;20029;-68
2021/05/04 01:34:19;;;;;;;5.55;2.50;;;12.10;70.10;;;;;;5013104;28;20085;-68
2021/05/04 01:36:44;;;;;;;9.98;2.35;;;12.10;70.80;;;;;;5012911;28;20037;-69
2021/05/04 01:39:11;;;;;;;5.82;2.42;;;12.10;70.90;;;;;;5013132;28;20428;-69
2021/05/04 01:41:37;;;;;;;4.40;2.30;;;12.10;70.80;;;;;;5013081;28;20017;-69
2021/05/04 01:44:05;;;;;;;5.32;2.47;;;12.10;70.10;;;;;;5012647;28;20030;-69
2021/05/04 01:46:33;;;;;;;7.55;3.53;;;12.00;69.90;;;;;;5013026;28;20105;-68
2021/05/04 01:49:05;;;;;;;3.60;2.15;;;12.00;69.90;;;;;;5013528;28;20113;-69
2021/05/04 01:51:31;;;;;;;3.97;1.85;;;12.00;70.20;;;;;;5016558;28;20410;-69
2021/05/04 01:53:57;;;;;;;6.10;1.80;;;12.00;70.30;;;;;;5016725;28;20030;-69
2021/05/04 01:56:23;;;;;;;4.18;1.77;;;12.00;70.30;;;;;;5016777;28;20132;-69
2021/05/04 01:58:49;;;;;;;4.68;2.00;;;11.90;69.70;;;;;;5016635;28;20161;-69
2021/05/04 02:01:16;;;;;;;2.88;1.90;;;11.90;69.50;;;;;;5017113;28;20455;-69
2021/05/04 02:03:42;;;;;;;5.40;1.85;;;11.90;69.80;;;;;;5016907;28;20026;-69
2021/05/04 02:06:08;;;;;;;4.22;1.58;;;11.90;70.30;;;;;;5016570;28;20029;-69
2021/05/04 02:08:34;;;;;;;4.05;1.90;;;11.80;70.30;;;;;;5016826;28;20557;-68
2021/05/04 02:10:59;;;;;;;7.25;1.98;;;11.80;70.10;;;;;;5016647;28;20030;-69
2021/05/04 02:13:25;;;;;;;61.63;3.30;;;11.80;70.00;;;;;;5016494;28;20037;-69
2021/05/04 02:15:51;;;;;;;24.15;2.35;;;11.80;70.00;;;;;;5016710;28;20037;-68
2021/05/04 02:18:17;;;;;;;15.65;1.98;;;11.70;70.00;;;;;;5016224;28;20017;-68
2021/05/04 02:20:42;;;;;;;2.38;1.90;;;11.70;70.30;;;;;;5016398;28;20382;-68
2021/05/04 02:23:09;;;;;;;2.83;1.85;;;11.70;69.90;;;;;;5016525;28;20022;-69
2021/05/04 02:25:34;;;;;;;5.38;1.75;;;11.70;69.70;;;;;;5016756;28;20038;-69
2021/05/04 02:28:02;;;;;;;4.07;1.88;;;11.70;70.10;;;;;;5016479;28;20026;-69
2021/05/04 02:30:29;;;;;;;6.90;1.90;;;11.80;70.30;;;;;;5016638;28;20447;-68
2021/05/04 02:32:55;;;;;;;4.75;1.70;;;11.80;69.80;;;;;;5016430;28;20022;-70
2021/05/04 02:35:21;;;;;;;4.97;2.08;;;11.80;69.50;;;;;;5015995;28;20036;-69
2021/05/04 02:37:46;;;;;;;2.45;1.83;;;11.70;69.10;;;;;;5016188;28;20429;-68
2021/05/04 02:40:13;;;;;;;2.88;1.90;;;11.80;69.50;;;;;;5016301;28;20027;-69
2021/05/04 02:42:38;;;;;;;4.60;1.70;;;11.70;69.50;;;;;;5016144;28;20053;-69
2021/05/04 02:45:05;;;;;;;3.45;1.90;;;11.60;70.10;;;;;;5015875;28;20070;-68
2021/05/04 02:47:30;;;;;;;6.80;2.13;;;11.60;70.40;;;;;;5015921;28;20415;-69
2021/05/04 02:49:56;;;;;;;3.92;2.22;;;11.60;70.70;;;;;;5015854;28;20168;-69
2021/05/04 02:52:22;;;;;;;8.00;2.00;;;11.60;70.50;;;;;;5016052;28;20021;-69
2021/05/04 02:54:47;;;;;;;6.13;2.30;;;11.60;70.50;;;;;;5015834;28;20025;-68
2021/05/04 02:57:13;;;;;;;4.40;1.90;;;11.60;70.60;;;;;;5015806;28;20077;-68
2021/05/04 02:59:39;;;;;;;7.38;2.15;;;11.60;70.40;;;;;;5015469;28;20034;-69
2021/05/04 03:02:04;;;;;;;6.10;1.95;;;11.60;70.50;;;;;;5016001;28;20032;-68
2021/05/04 03:04:30;;;;;;;4.30;1.90;;;11.60;70.40;;;;;;5030821;28;20043;-69
2021/05/04 03:06:56;;;;;;;2.97;1.88;;;11.50;70.20;;;;;;5015603;28;20021;-69
2021/05/04 03:09:21;;;;;;;3.45;1.92;;;11.50;70.60;;;;;;5015634;28;20034;-71
2021/05/04 03:11:47;;;;;;;5.28;2.15;;;11.50;70.70;;;;;;5030942;28;20156;-70
2021/05/04 03:14:13;;;;;;;3.42;2.63;;;11.50;70.30;;;;;;5015794;28;20029;-70
2021/05/04 03:16:38;;;;;;;3.88;2.33;;;11.50;70.50;;;;;;5015537;28;20054;-71
2021/05/04 03:19:04;;;;;;;5.75;2.92;;;11.50;70.60;;;;;;5015292;28;20072;-70
2021/05/04 03:21:30;;;;;;;7.05;3.08;;;11.50;70.40;;;;;;5015598;28;20026;-71
2021/05/04 03:23:56;;;;;;;8.48;2.78;;;11.50;70.30;;;;;;5015425;28;20029;-68
2021/05/04 03:26:22;;;;;;;6.80;2.30;;;11.50;70.20;;;;;;5015507;28;20386;-68
2021/05/04 03:28:47;;;;;;;7.03;2.85;;;11.50;70.20;;;;;;5015370;28;20036;-70
2021/05/04 03:31:13;;;;;;;7.05;2.38;;;11.50;70.10;;;;;;5015338;28;20053;-70
2021/05/04 03:33:39;;;;;;;4.32;2.42;;;11.50;70.00;;;;;;5015409;28;20057;-68
2021/05/04 03:36:05;;;;;;;6.82;2.75;;;11.50;69.90;;;;;;5015334;28;20022;-69
2021/05/04 03:38:31;;;;;;;7.30;2.45;;;11.50;70.00;;;;;;5015185;28;20034;-69
2021/05/04 03:40:56;;;;;;;7.95;2.55;;;11.50;70.10;;;;;;5015006;28;20036;-70
2021/05/04 03:43:22;;;;;;;4.93;2.47;;;11.50;69.70;;;;;;5015048;28;20026;-70
2021/05/04 03:45:48;;;;;;;5.00;2.35;;;11.50;69.20;;;;;;5014799;28;20498;-69
2021/05/04 03:48:13;;;;;;;7.40;2.35;;;11.40;69.10;;;;;;5015106;28;20026;-69
2021/05/04 03:50:39;;;;;;;3.95;2.60;;;11.40;68.60;;;;;;5014880;28;20073;-69
2021/05/04 03:53:06;;;;;;;6.07;1.95;;;11.40;68.40;;;;;;5015215;28;20054;-69
2021/05/04 03:55:31;;;;;;;3.22;2.03;;;11.30;68.50;;;;;;5014976;28;20536;-70
2021/05/04 03:57:57;;;;;;;3.22;2.13;;;11.30;68.60;;;;;;5014838;28;20041;-70
2021/05/04 04:00:23;;;;;;;3.80;1.83;;;11.20;68.80;;;;;;5014998;28;20049;-69
2021/05/04 04:02:51;;;;;;;5.38;2.35;;;11.20;69.00;;;;;;5014569;28;20065;-69
2021/05/04 04:05:17;;;;;;;5.07;2.10;;;11.10;69.40;;;;;;5014307;28;20038;-68
2021/05/04 04:07:42;;;;;;;2.67;1.83;;;11.00;69.70;;;;;;5014479;28;20026;-69
2021/05/04 04:10:11;;;;;;;4.88;2.15;;;10.90;69.90;;;;;;5014311;28;20029;-69
2021/05/04 04:12:37;;;;;;;3.15;2.20;;;10.90;70.40;;;;;;5013945;28;20063;-69
2021/05/04 04:15:03;;;;;;;2.15;1.60;;;10.80;70.40;;;;;;5014726;28;20419;-68
2021/05/04 04:17:29;;;;;;;4.75;1.63;;;10.80;70.60;;;;;;5014336;28;20025;-69
2021/05/04 04:19:55;;;;;;;4.20;2.13;;;10.80;70.90;;;;;;5014260;28;20418;-68
2021/05/04 04:22:20;;;;;;;6.57;2.30;;;10.70;71.20;;;;;;5014619;28;20121;-69
2021/05/04 04:24:46;;;;;;;14.10;3.33;;;10.70;71.30;;;;;;5014752;28;20034;-69
2021/05/04 04:27:12;;;;;;;14.98;3.38;;;10.70;71.50;;;;;;5014300;28;20478;-69
2021/05/04 04:29:38;;;;;;;12.77;4.18;;;10.60;71.60;;;;;;5014175;28;20113;-69
2021/05/04 04:32:05;;;;;;;7.32;3.20;;;10.60;71.70;;;;;;5014390;28;20135;-69
2021/05/04 04:34:31;;;;;;;8.90;3.50;;;10.60;71.40;;;;;;5014328;28;20479;-68
2021/05/04 04:36:56;;;;;;;13.43;4.22;;;10.70;71.50;;;;;;5014131;28;20033;-69
2021/05/04 04:39:22;;;;;;;11.80;3.17;;;10.70;71.80;;;;;;5013843;28;20030;-69
2021/05/04 04:41:48;;;;;;;10.52;3.00;;;10.70;71.50;;;;;;5014195;28;20041;-69
2021/05/04 04:44:15;;;;;;;35.33;4.45;;;10.70;71.60;;;;;;5013815;28;20033;-68
2021/05/04 04:46:41;;;;;;;20.90;3.97;;;10.70;71.70;;;;;;5013812;28;20026;-69
2021/05/04 04:49:08;;;;;;;18.52;3.25;;;10.70;71.90;;;;;;5013885;28;20029;-68
2021/05/04 04:51:34;;;;;;;16.08;3.47;;;10.70;72.00;;;;;;5013836;28;20133;-68
2021/05/04 04:54:00;;;;;;;13.23;3.15;;;10.70;72.20;;;;;;5013659;28;20500;-68
2021/05/04 04:56:26;;;;;;;41.28;4.13;;;10.70;72.10;;;;;;5013381;28;20478;-68
2021/05/04 04:58:52;;;;;;;17.35;3.33;;;10.70;72.50;;;;;;5013145;28;20045;-69
2021/05/04 05:01:17;;;;;;;22.80;3.72;;;10.70;72.70;;;;;;5012210;28;20133;-68
2021/05/04 05:03:43;;;;;;;31.23;4.65;;;10.80;73.00;;;;;;5012600;28;20033;-69
2021/05/04 05:06:09;;;;;;;16.65;2.70;;;10.80;73.00;;;;;;5011994;28;20164;-68
2021/05/04 05:08:34;;;;;;;8.35;2.25;;;10.90;72.80;;;;;;5013251;28;20018;-68
2021/05/04 05:11:00;;;;;;;8.23;2.38;;;10.90;72.40;;;;;;5013446;28;20031;-68
2021/05/04 05:13:26;;;;;;;9.45;2.33;;;11.00;71.90;;;;;;5013537;28;20101;-68
2021/05/04 05:15:51;;;;;;;8.95;2.70;;;11.00;71.60;;;;;;5013201;28;20030;-69
2021/05/04 05:18:17;;;;;;;6.88;2.60;;;10.90;71.60;;;;;;5013242;28;20022;-69
2021/05/04 05:20:43;;;;;;;8.95;2.70;;;10.90;71.90;;;;;;5013412;28;20029;-68
2021/05/04 05:23:08;;;;;;;6.30;3.00;;;11.00;71.80;;;;;;5013329;28;20022;-69
2021/05/04 05:25:35;;;;;;;9.20;2.95;;;11.00;71.50;;;;;;5013235;28;20030;-68
2021/05/04 05:28:00;;;;;;;4.93;2.47;;;11.00;71.50;;;;;;5013351;28;20022;-68
2021/05/04 05:30:26;;;;;;;8.68;2.30;;;11.00;71.80;;;;;;5013232;28;20048;-69
2021/05/04 05:32:52;;;;;;;6.13;2.60;;;11.10;71.70;;;;;;5013037;28;20423;-68
2021/05/04 05:35:18;;;;;;;11.45;2.63;;;11.10;72.00;;;;;;5013274;28;20064;-67
2021/05/04 05:37:43;;;;;;;5.85;1.80;;;11.20;72.00;;;;;;5012182;28;20023;-68
2021/05/04 05:40:09;;;;;;;4.28;2.10;;;11.20;71.70;;;;;;5013077;28;20030;-67
2021/05/04 05:42:35;;;;;;;4.90;2.20;;;11.20;71.70;;;;;;5013311;28;20022;-67
2021/05/04 05:45:01;;;;;;;5.38;2.03;;;11.20;72.00;;;;;;5013066;28;20394;-67
2021/05/04 05:47:27;;;;;;;4.47;1.92;;;11.30;72.10;;;;;;5013184;28;20030;-67
2021/05/04 05:49:52;;;;;;;7.53;2.50;;;11.30;72.00;;;;;;5013014;28;20124;-68
2021/05/04 05:52:18;;;;;;;11.68;2.60;;;11.30;72.00;;;;;;5013041;28;20037;-67
2021/05/04 05:54:44;;;;;;;26.80;3.47;;;11.30;72.10;;;;;;5013133;28;20040;-67
2021/05/04 05:57:09;;;;;;;7.07;2.83;;;11.30;72.20;;;;;;5013229;28;20352;-67
2021/05/04 05:59:35;;;;;;;5.22;2.30;;;11.30;72.30;;;;;;5012987;28;20022;-67
2021/05/04 06:02:01;;;;;;;5.70;2.22;;;11.30;72.50;;;;;;5012932;28;20494;-67
2021/05/04 06:04:26;;;;;;;4.57;1.98;;;11.40;72.60;;;;;;5013286;28;20080;-67
2021/05/04 06:06:52;;;;;;;4.57;1.98;;;11.40;72.60;;;;;;5013005;28;20041;-67
2021/05/04 06:09:18;;;;;;;4.07;1.98;;;11.50;72.50;;;;;;5013147;28;20433;-68
2021/05/04 06:11:43;;;;;;;6.22;2.13;;;11.60;72.50;;;;;;5013427;28;20500;-67
2021/05/04 06:14:09;;;;;;;3.63;2.10;;;11.60;72.40;;;;;;5013093;28;20026;-67
2021/05/04 06:16:35;;;;;;;5.18;1.92;;;11.70;72.20;;;;;;5012935;28;20097;-70
2021/05/04 06:19:00;;;;;;;4.55;1.83;;;11.80;72.20;;;;;;5013073;28;20093;-70
2021/05/04 06:21:26;;;;;;;6.22;1.88;;;11.80;71.70;;;;;;5013078;28;20455;-70
2021/05/04 06:23:52;;;;;;;2.45;1.90;;;11.90;71.40;;;;;;5013007;28;20041;-69
2021/05/04 06:26:18;;;;;;;3.25;1.90;;;11.90;71.40;;;;;;5012908;28;20112;-70
2021/05/04 06:28:49;;;;;;;3.72;1.55;;;12.00;71.50;;;;;;5012974;28;20034;-70
2021/05/04 06:31:20;;;;;;;4.07;2.10;;;12.10;71.50;;;;;;5012386;28;20445;-69
2021/05/04 06:33:46;;;;;;;1.85;1.35;;;12.10;71.60;;;;;;5012833;28;20022;-72
2021/05/04 06:36:12;;;;;;;5.78;2.05;;;12.20;72.00;;;;;;5016400;28;20025;-71
2021/05/04 06:38:39;;;;;;;5.45;2.33;;;12.30;71.40;;;;;;5016262;28;20033;-71
2021/05/04 06:41:05;;;;;;;4.63;2.05;;;12.40;71.50;;;;;;5015656;28;20105;-70
2021/05/04 06:43:31;;;;;;;3.75;1.50;;;12.40;71.20;;;;;;5016177;28;20102;-70
2021/05/04 06:45:57;;;;;;;6.15;1.70;;;12.50;70.60;;;;;;5016149;28;20034;-77
2021/05/04 06:48:23;;;;;;;5.65;1.58;;;12.60;70.20;;;;;;5016212;28;20018;-71
2021/05/04 06:50:51;;;;;;;3.22;1.70;;;12.60;69.60;;;;;;5015863;28;20397;-71
2021/05/04 06:53:16;;;;;;;8.00;1.83;;;12.70;69.80;;;;;;5015917;28;20026;-70
2021/05/04 06:55:42;;;;;;;8.30;1.63;;;12.80;69.70;;;;;;5015587;28;20382;-71
2021/05/04 06:58:08;;;;;;;6.55;2.03;;;12.80;69.70;;;;;;5015782;28;20060;-70
2021/05/04 07:00:34;;;;;;;4.07;1.50;;;12.90;69.70;;;;;;5015819;28;20034;-71
2021/05/04 07:03:03;;;;;;;7.40;1.55;;;12.90;69.70;;;;;;5016057;28;20026;-76
2021/05/04 07:05:29;;;;;;;3.97;1.10;;;13.00;69.40;;;;;;5015620;28;20402;-71
2021/05/04 07:07:55;;;;;;;2.83;1.13;;;13.10;69.30;;;;;;5015841;28;20029;-71
2021/05/04 07:10:20;;;;;;;4.40;1.60;;;13.10;69.00;;;;;;5015144;28;20030;-70
2021/05/04 07:12:46;;;;;;;5.03;1.60;;;13.20;68.50;;;;;;5014389;28;20030;-71
2021/05/04 07:15:12;;;;;;;5.05;1.50;;;13.30;68.40;;;;;;5012871;28;20030;-69
2021/05/04 07:17:38;;;;;;;9.90;1.77;;;13.30;68.50;;;;;;5014888;28;20117;-70
2021/05/04 07:20:04;;;;;;;3.85;1.40;;;13.40;68.90;;;;;;5015389;28;20525;-69
2021/05/04 07:22:31;;;;;;;9.60;1.70;;;13.50;69.40;;;;;;5006305;28;20061;-70
2021/05/04 07:24:57;;;;;;;4.68;1.50;;;13.60;69.20;;;;;;4995421;28;20094;-70
2021/05/04 07:27:23;;;;;;;2.53;1.20;;;13.70;68.90;;;;;;4997368;28;20031;-70
2021/05/04 07:29:49;;;;;;;4.35;1.58;;;13.70;68.80;;;;;;5015066;28;20037;-69
2021/05/04 07:32:18;;;;;;;4.05;1.42;;;13.80;68.50;;;;;;5008827;28;20061;-69
2021/05/04 07:34:48;;;;;;;6.57;1.40;;;13.90;69.50;;;;;;4995449;28;20041;-69
2021/05/04 07:37:14;;;;;;;5.82;2.10;;;13.90;69.00;;;;;;4995097;28;20077;-69
2021/05/04 07:39:41;;;;;;;8.00;1.60;;;14.00;68.70;;;;;;4995269;28;20027;-68
2021/05/04 07:42:07;;;;;;;4.55;1.38;;;14.10;69.40;;;;;;4995244;28;20040;-69
2021/05/04 07:44:33;;;;;;;2.08;1.20;;;14.20;69.20;;;;;;4995067;28;20109;-69
2021/05/04 07:46:59;;;;;;;4.38;1.30;;;14.20;68.00;;;;;;4995380;28;20551;-69
2021/05/04 07:49:34;;;;;;;5.45;1.20;;;14.30;68.10;;;;;;4994742;28;20368;-69
2021/05/04 07:52:00;;;;;;;2.90;1.27;;;14.40;67.70;;;;;;4995084;28;20034;-69
2021/05/04 07:54:27;;;;;;;3.42;0.93;;;14.40;67.40;;;;;;4995362;28;20089;-69
2021/05/04 07:56:52;;;;;;;4.53;1.48;;;14.50;67.30;;;;;;4995027;28;20478;-69
2021/05/04 07:59:18;;;;;;;2.55;1.10;;;14.60;67.20;;;;;;4994773;28;20089;-68
2021/05/04 08:01:44;;;;;;;2.55;1.00;;;14.70;66.70;;;;;;4994792;28;20445;-68
2021/05/04 08:04:11;;;;;;;2.35;1.00;;;14.70;66.30;;;;;;4994748;28;20056;-69
2021/05/04 08:06:37;;;;;;;3.10;1.00;;;14.80;65.50;;;;;;4994719;28;20026;-69
2021/05/04 08:09:03;;;;;;;4.38;1.40;;;14.90;65.30;;;;;;4994464;28;20029;-70
2021/05/04 08:11:29;;;;;;;2.90;1.00;;;15.00;65.50;;;;;;4994353;28;20030;-69
2021/05/04 08:13:55;;;;;;;3.40;1.23;;;15.10;65.10;;;;;;4994727;28;20022;-69
2021/05/04 08:16:20;;;;;;;5.47;1.10;;;15.20;64.40;;;;;;4994460;28;20102;-69
2021/05/04 08:18:49;;;;;;;2.67;0.82;;;15.30;64.00;;;;;;4994288;28;20386;-69
2021/05/04 08:21:15;;;;;;;7.50;1.20;;;15.30;63.90;;;;;;4994151;28;20557;-69
2021/05/04 08:23:42;;;;;;;2.17;0.85;;;15.40;63.00;;;;;;4994277;28;20030;-69
2021/05/04 08:26:08;;;;;;;2.15;0.77;;;15.40;62.00;;;;;;4994479;28;20133;-69
2021/05/04 08:28:34;;;;;;;4.25;1.30;;;15.50;61.80;;;;;;4994419;28;20097;-69
2021/05/04 08:30:59;;;;;;;2.33;0.90;;;15.50;61.80;;;;;;5000065;28;20036;-69
2021/05/04 08:33:25;;;;;;;3.53;1.00;;;15.60;61.70;;;;;;5013604;28;20030;-70
2021/05/04 08:35:51;;;;;;;5.13;0.80;;;15.60;61.40;;;;;;5013927;28;20088;-70
2021/05/04 08:38:16;;;;;;;4.25;1.00;;;15.70;61.70;;;;;;5013617;28;20021;-69
2021/05/04 08:40:43;;;;;;;4.07;0.95;;;15.80;61.40;;;;;;5013413;28;20501;-70
2021/05/04 08:43:09;;;;;;;2.10;0.98;;;15.80;61.00;;;;;;5013478;28;20109;-70
2021/05/04 08:45:35;;;;;;;2.90;0.85;;;15.80;60.80;;;;;;5013700;28;20383;-70
2021/05/04 08:48:02;;;;;;;4.72;0.82;;;15.90;60.20;;;;;;5013516;28;20033;-69
2021/05/04 08:50:35;;;;;;;3.95;0.90;;;15.90;58.40;;;;;;5013285;28;20058;-69
2021/05/04 08:53:00;;;;;;;4.07;1.00;;;16.10;57.50;;;;;;5013291;28;20064;-69
2021/05/04 08:55:26;;;;;;;2.97;0.85;;;16.10;58.20;;;;;;5013275;28;20046;-69
2021/05/04 08:57:52;;;;;;;1.73;0.80;;;16.10;59.10;;;;;;5012812;28;20056;-68
2021/05/04 09:00:18;;;;;;;3.13;0.93;;;16.20;59.60;;;;;;5013231;28;20026;-68
2021/05/04 09:03:09;;;;;;;1.60;0.70;;;16.30;58.70;;;;;;5013193;28;20441;-69
2021/05/04 09:06:02;;;;;;;3.77;1.00;;;16.40;58.40;;;;;;5012780;28;20081;-69
2021/05/04 09:08:51;;;;;;;3.55;1.00;;;16.40;58.20;;;;;;5012754;28;20387;-69
2021/05/04 09:22:42;;;;;;;4.10;0.90;;;17.00;57.20;;;;;;5003018;28;20545;-69
2021/05/04 09:25:30;;;;;;;3.80;0.90;;;17.00;57.70;;;;;;5011319;28;20042;-69
2021/05/04 09:28:05;;;;;;;1.83;0.85;;;17.10;57.90;;;;;;5012174;28;20018;-69
2021/05/04 09:30:32;;;;;;;6.63;1.17;;;17.20;57.60;;;;;;5013156;28;20030;-69
2021/05/04 09:33:09;;;;;;;2.22;0.82;;;17.20;57.20;;;;;;5012122;28;20030;-69
2021/05/04 09:35:35;;;;;;;3.72;0.77;;;17.30;57.30;;;;;;5013320;28;20057;-70
2021/05/04 09:38:42;;;;;;;3.03;0.93;;;17.30;56.70;;;;;;5013204;28;20050;-70
2021/05/04 09:41:28;;;;;;;4.47;1.00;;;17.30;56.00;;;;;;4993600;28;20065;-70
2021/05/04 09:43:53;;;;;;;8.48;0.90;;;17.30;56.30;;;;;;5012988;28;20390;-70
2021/05/04 09:46:19;;;;;;;5.45;1.00;;;17.40;57.40;;;;;;5012924;28;20042;-71
2021/05/04 09:48:45;;;;;;;2.97;1.02;;;17.50;56.60;;;;;;5013128;28;20463;-69
2021/05/04 09:51:18;;;;;;;3.22;0.80;;;17.70;55.30;;;;;;5013148;28;20050;-69
2021/05/04 09:54:10;;;;;;;2.88;0.90;;;17.70;52.60;;;;;;5013151;28;20386;-69
2021/05/04 09:56:37;;;;;;;2.38;0.90;;;17.90;54.20;;;;;;5012872;28;20049;-70
2021/05/04 09:59:03;;;;;;;4.13;1.13;;;18.00;54.70;;;;;;5012926;28;20104;-70
2021/05/04 10:01:29;;;;;;;2.92;1.00;;;18.00;53.90;;;;;;5013158;28;20479;-71
2021/05/04 10:03:55;;;;;;;5.07;0.95;;;18.10;53.20;;;;;;5012936;28;20351;-74
2021/05/04 10:06:22;;;;;;;2.22;1.02;;;18.10;55.20;;;;;;5012633;28;20078;-73
2021/05/04 10:08:49;;;;;;;4.38;1.20;;;18.20;55.70;;;;;;5012861;28;20497;-72
2021/05/04 10:11:19;;;;;;;3.78;1.20;;;18.30;54.70;;;;;;5016940;28;20390;-67
2021/05/04 13:08:48;;;;;;;5.93;1.10;;;18.60;52.10;;;;;;5131522;27;20372;-70
2021/05/04 13:11:16;;;;;;;3.58;1.10;;;18.60;51.50;;;;;;5131408;27;20023;-70
2021/05/04 13:14:01;;;;;;;2.85;1.00;;;18.70;52.10;;;;;;5131557;27;20024;-70
2021/05/04 13:32:57;;;;;;;6.22;1.45;;;19.00;48.60;;;;;;5130844;27;20490;-73
2021/05/04 13:35:26;;;;;;;5.63;1.30;;;19.00;49.90;;;;;;5130972;27;20091;-71
2021/05/04 13:48:27;;;;;;;2.78;1.25;;;19.20;49.00;;;;;;5130780;28;20042;-70
2021/05/04 13:50:53;;;;;;;5.35;1.70;;;19.20;48.90;;;;;;5129227;28;20027;-70
2021/05/04 13:53:19;;;;;;;2.22;0.90;;;19.20;49.50;;;;;;5130451;27;20064;-71
2021/05/04 13:55:45;;;;;;;6.55;1.30;;;19.20;48.80;;;;;;5130720;27;20019;-70
2021/05/04 13:58:13;;;;;;;6.55;1.60;;;19.20;49.10;;;;;;5130466;27;20084;-70
2021/05/04 14:00:57;;;;;;;8.48;1.55;;;19.20;49.40;;;;;;5130513;27;20031;-70
2021/05/04 14:28:08;;;;;;;5.28;1.85;;;19.40;50.80;;;;;;5116047;28;20038;-70
2021/05/04 14:30:34;;;;;;;7.93;2.03;;;19.40;51.70;;;;;;5116453;28;20020;-70
2021/05/04 14:33:00;;;;;;;13.05;2.00;;;19.40;52.40;;;;;;5116254;28;20156;-70
2021/05/04 14:35:38;;;;;;;11.05;1.75;;;19.40;53.10;;;;;;5116367;28;20051;-68
2021/05/04 14:38:13;;;;;;;7.45;1.77;;;19.40;53.80;;;;;;5115781;28;20379;-68
2021/05/04 14:44:00;;;;;;;8.20;1.83;;;19.30;54.60;;;;;;5116089;28;20134;-70
2021/05/04 15:02:41;;;;;;;6.85;1.92;;;19.10;53.40;;;;;;5115161;28;20042;-72
2021/05/04 15:05:08;;;;;;;6.28;1.80;;;19.10;54.50;;;;;;5115448;28;20015;-72
2021/05/04 15:07:33;;;;;;;10.18;2.53;;;19.20;53.80;;;;;;5115277;28;20143;-71
2021/05/04 15:09:59;;;;;;;10.48;1.90;;;19.10;53.90;;;;;;5115599;28;20051;-68
2021/05/04 15:12:25;;;;;;;10.88;2.10;;;19.10;53.20;;;;;;5115582;28;20024;-71
2021/05/04 15:14:53;;;;;;;7.80;1.80;;;19.10;53.60;;;;;;5115373;28;20106;-70
2021/05/04 15:17:23;;;;;;;6.03;1.60;;;19.20;54.90;;;;;;5115628;28;20053;-72
2021/05/04 15:22:33;;;;;;;8.65;1.90;;;19.20;54.60;;;;;;5115270;28;20502;-70
2021/05/04 15:24:59;;;;;;;9.10;1.98;;;19.20;54.00;;;;;;5115304;28;20019;-72
2021/05/04 15:27:25;;;;;;;5.80;1.85;;;19.20;54.90;;;;;;5114953;28;20081;-73
2021/05/04 15:29:50;;;;;;;10.70;1.83;;;19.10;54.20;;;;;;5114240;28;20048;-69
2021/05/04 15:34:56;;;;;;;13.68;2.40;;;19.00;54.90;;;;;;5115135;28;20487;-70
2021/05/04 15:37:22;;;;;;;8.98;2.10;;;19.00;54.80;;;;;;5115020;28;20069;-70
2021/05/04 15:39:50;;;;;;;10.13;2.10;;;19.00;55.10;;;;;;5115197;28;20028;-69
2021/05/04 15:42:15;;;;;;;7.20;1.92;;;19.00;55.80;;;;;;5114917;28;20058;-69
2021/05/04 15:44:41;;;;;;;8.27;2.10;;;19.10;55.60;;;;;;5114851;28;20043;-71
2021/05/04 15:47:16;;;;;;;7.63;2.13;;;19.00;55.30;;;;;;5114517;28;20475;-69
2021/05/04 15:50:02;;;;;;;10.52;2.05;;;18.90;55.70;;;;;;5114719;28;20392;-71
2021/05/04 16:10:52;;;;;;;8.80;2.22;;;18.70;58.80;;;;;;5112275;28;20114;-67
2021/05/04 16:13:18;;;;;;;7.53;1.98;;;18.60;59.40;;;;;;5110449;28;20106;-67
2021/05/04 16:15:45;;;;;;;7.45;1.98;;;18.60;59.80;;;;;;5111051;28;20035;-67
2021/05/04 16:18:10;;;;;;;9.35;1.75;;;18.60;60.30;;;;;;5113737;28;20039;-67
2021/05/04 16:23:11;;;;;;;8.82;1.90;;;18.60;61.10;;;;;;5113534;28;20024;-67
2021/05/04 16:26:31;;;;;;;11.52;2.42;;;18.50;61.10;;;;;;5114045;28;20024;-67
2021/05/04 16:31:07;;;;;;;6.05;1.98;;;18.50;61.40;;;;;;5113707;28;20518;-67
2021/05/04 16:33:33;;;;;;;6.07;1.92;;;18.40;62.00;;;;;;5113660;28;20020;-67
2021/05/04 16:35:58;;;;;;;13.35;2.20;;;18.40;61.60;;;;;;5113780;28;20514;-67
2021/05/04 16:38:24;;;;;;;5.43;2.05;;;18.40;61.60;;;;;;5113831;28;20027;-63
2021/05/04 16:40:50;;;;;;;6.63;1.98;;;18.30;62.00;;;;;;5113521;28;20100;-63
2021/05/04 16:43:15;;;;;;;10.05;2.05;;;18.20;62.60;;;;;;5113256;28;20395;-63
2021/05/04 16:45:44;;;;;;;8.52;2.22;;;18.30;63.50;;;;;;5113586;28;20035;-63
2021/05/04 16:48:09;;;;;;;10.88;2.88;;;18.20;63.70;;;;;;5113410;28;20059;-63
2021/05/04 16:50:36;;;;;;;8.85;2.30;;;18.20;63.80;;;;;;5113320;28;20063;-63
2021/05/04 16:53:02;;;;;;;7.82;1.90;;;18.10;63.70;;;;;;5113509;28;20028;-63
2021/05/04 16:55:28;;;;;;;9.02;2.03;;;18.10;63.10;;;;;;5113483;28;20023;-64
2021/05/04 16:57:54;;;;;;;8.30;2.28;;;18.10;63.10;;;;;;5113128;28;20375;-63
2021/05/04 17:00:25;;;;;;;9.52;2.15;;;18.10;63.20;;;;;;5113349;28;20051;-63
2021/05/04 17:02:52;;;;;;;11.33;2.00;;;18.10;63.50;;;;;;5113385;28;20026;-63
2021/05/04 17:05:21;;;;;;;11.63;2.65;;;18.00;63.70;;;;;;5113292;28;20494;-63
2021/05/04 17:08:21;;;;;;;9.65;2.78;;;18.00;64.30;;;;;;5112811;28;20043;-62
2021/05/04 17:10:37;;;;;;;10.02;2.53;;;18.00;64.20;;;;;;5113010;28;20124;-63
2021/05/04 17:13:02;;;;;;;6.13;2.30;;;18.00;64.40;;;;;;5113370;28;20020;-63
2021/05/04 17:15:30;;;;;;;12.45;2.40;;;18.00;64.50;;;;;;5112031;28;20031;-63
2021/05/04 17:17:56;;;;;;;10.15;2.45;;;17.90;64.70;;;;;;5112717;28;20028;-63
2021/05/04 17:20:23;;;;;;;6.13;2.17;;;17.90;64.50;;;;;;5113364;28;20053;-63
2021/05/04 17:22:49;;;;;;;12.32;2.40;;;17.80;64.80;;;;;;5112688;28;20028;-64
2021/05/04 17:25:17;;;;;;;12.02;2.75;;;17.80;65.00;;;;;;5113108;28;20027;-64
2021/05/04 17:27:43;;;;;;;11.57;2.72;;;17.80;65.10;;;;;;5112881;28;20102;-64
2021/05/04 17:30:10;;;;;;;8.60;2.50;;;17.80;65.00;;;;;;5113275;28;20420;-63
2021/05/04 17:32:36;;;;;;;7.85;2.00;;;17.80;65.50;;;;;;5110524;28;20510;-63